sensor_id;sensor_type;location;lat;lon;timestamp;temperature;humidity
22161;DHT22;49035;48.812;11.762;2023-07-20T00:00:17;17.60;99.90
22161;DHT22;49035;48.812;11.762;2023-07-20T00:02:43;17.50;99.90
22161;DHT22;49035;48.812;11.762;2023-07-20T00:05:09;17.50;99.90
22161;DHT22;49035;48.812;11.762;2023-07-20T00:07:35;17.40;99.90
22161;DHT22;49035;48.812;11.762;2023-07-20T00:10:00;17.40;99.90
22161;DHT22;49035;48.812;11.762;2023-07-20T00:12:26;17.40;99.90
22161;DHT22;49035;48.812;11.762;2023-07-20T00:14:51;17.40;99.90
22161;DHT22;49035;48.812;11.762;2023-07-20T00:17:19;17.40;99.90
22161;DHT22;49035;48.812;11.762;2023-07-20T00:19:44;17.30;99.90
22161;DHT22;49035;48.812;11.762;2023-07-20T00:22:10;17.40;99.90
22161;DHT22;49035;48.812;11.762;2023-07-20T00:24:36;17.30;99.90
22161;DHT22;49035;48.812;11.762;2023-07-20T00:27:01;17.20;99.90
22161;DHT22;49035;48.812;11.762;2023-07-20T00:29:28;17.20;99.90
22161;DHT22;49035;48.812;11.762;2023-07-20T00:31:53;17.10;99.90
22161;DHT22;49035;48.812;11.762;2023-07-20T00:34:19;17.00;99.90
22161;DHT22;49035;48.812;11.762;2023-07-20T00:36:44;16.80;99.90
22161;DHT22;49035;48.812;11.762;2023-07-20T00:39:10;16.60;99.90
22161;DHT22;49035;48.812;11.762;2023-07-20T00:41:35;16.50;99.90
22161;DHT22;49035;48.812;11.762;2023-07-20T00:44:01;16.30;99.90
22161;DHT22;49035;48.812;11.762;2023-07-20T00:46:27;16.10;99.90
22161;DHT22;49035;48.812;11.762;2023-07-20T00:48:53;16.00;99.90
22161;DHT22;49035;48.812;11.762;2023-07-20T00:51:20;15.70;99.90
22161;DHT22;49035;48.812;11.762;2023-07-20T00:53:46;15.60;99.90
22161;DHT22;49035;48.812;11.762;2023-07-20T00:56:12;15.50;99.90
22161;DHT22;49035;48.812;11.762;2023-07-20T00:58:38;15.30;99.90
22161;DHT22;49035;48.812;11.762;2023-07-20T01:01:04;15.20;99.90
22161;DHT22;49035;48.812;11.762;2023-07-20T01:03:29;15.10;99.90
22161;DHT22;49035;48.812;11.762;2023-07-20T01:06:08;14.90;99.90
22161;DHT22;49035;48.812;11.762;2023-07-20T01:09:18;14.70;99.90
22161;DHT22;49035;48.812;11.762;2023-07-20T01:12:07;14.60;99.90
22161;DHT22;49035;48.812;11.762;2023-07-20T01:14:34;14.70;99.90
22161;DHT22;49035;48.812;11.762;2023-07-20T01:17:00;14.60;99.90
22161;DHT22;49035;48.812;11.762;2023-07-20T01:19:25;14.60;99.90
22161;DHT22;49035;48.812;11.762;2023-07-20T01:21:57;14.60;99.90
22161;DHT22;49035;48.812;11.762;2023-07-20T01:27:17;14.80;99.90
22161;DHT22;49035;48.812;11.762;2023-07-20T01:32:42;14.90;99.90
22161;DHT22;49035;48.812;11.762;2023-07-20T01:35:11;15.00;99.90
22161;DHT22;49035;48.812;11.762;2023-07-20T01:37:40;15.10;99.90
22161;DHT22;49035;48.812;11.762;2023-07-20T01:40:07;15.10;99.90
22161;DHT22;49035;48.812;11.762;2023-07-20T01:42:33;15.20;99.90
22161;DHT22;49035;48.812;11.762;2023-07-20T01:44:59;15.20;99.90
22161;DHT22;49035;48.812;11.762;2023-07-20T01:47:25;15.20;99.90
22161;DHT22;49035;48.812;11.762;2023-07-20T01:49:51;15.30;99.90
22161;DHT22;49035;48.812;11.762;2023-07-20T01:52:16;15.30;99.90
22161;DHT22;49035;48.812;11.762;2023-07-20T01:54:42;15.40;99.90
22161;DHT22;49035;48.812;11.762;2023-07-20T01:57:07;15.40;99.90
22161;DHT22;49035;48.812;11.762;2023-07-20T01:59:33;15.50;99.90
22161;DHT22;49035;48.812;11.762;2023-07-20T02:01:59;15.50;99.90
22161;DHT22;49035;48.812;11.762;2023-07-20T02:04:24;15.40;99.90
22161;DHT22;49035;48.812;11.762;2023-07-20T02:06:50;15.40;99.90
22161;DHT22;49035;48.812;11.762;2023-07-20T02:09:15;15.30;99.90
22161;DHT22;49035;48.812;11.762;2023-07-20T02:11:41;15.30;99.90
22161;DHT22;49035;48.812;11.762;2023-07-20T02:14:06;15.30;99.90
22161;DHT22;49035;48.812;11.762;2023-07-20T02:16:32;15.30;99.90
22161;DHT22;49035;48.812;11.762;2023-07-20T02:18:57;15.40;99.90
22161;DHT22;49035;48.812;11.762;2023-07-20T02:21:23;15.50;99.90
22161;DHT22;49035;48.812;11.762;2023-07-20T02:23:49;15.50;99.90
22161;DHT22;49035;48.812;11.762;2023-07-20T02:26:15;15.40;99.90
22161;DHT22;49035;48.812;11.762;2023-07-20T02:28:40;15.40;99.90
22161;DHT22;49035;48.812;11.762;2023-07-20T02:31:06;15.50;99.90
22161;DHT22;49035;48.812;11.762;2023-07-20T02:33:32;15.40;99.90
22161;DHT22;49035;48.812;11.762;2023-07-20T02:35:58;15.40;99.90
22161;DHT22;49035;48.812;11.762;2023-07-20T02:38:23;15.40;99.90
22161;DHT22;49035;48.812;11.762;2023-07-20T02:40:49;15.50;99.90
22161;DHT22;49035;48.812;11.762;2023-07-20T02:43:15;15.40;99.90
22161;DHT22;49035;48.812;11.762;2023-07-20T02:45:41;15.40;99.90
22161;DHT22;49035;48.812;11.762;2023-07-20T02:48:08;15.40;99.90
22161;DHT22;49035;48.812;11.762;2023-07-20T02:50:33;15.50;99.90
22161;DHT22;49035;48.812;11.762;2023-07-20T02:53:00;15.50;99.90
22161;DHT22;49035;48.812;11.762;2023-07-20T02:55:26;15.50;99.90
22161;DHT22;49035;48.812;11.762;2023-07-20T02:57:52;15.50;99.90
22161;DHT22;49035;48.812;11.762;2023-07-20T03:00:17;15.40;99.90
22161;DHT22;49035;48.812;11.762;2023-07-20T03:02:45;15.30;99.90
22161;DHT22;49035;48.812;11.762;2023-07-20T03:05:13;15.20;99.90
22161;DHT22;49035;48.812;11.762;2023-07-20T03:07:39;15.20;99.90
22161;DHT22;49035;48.812;11.762;2023-07-20T03:10:05;15.10;99.90
22161;DHT22;49035;48.812;11.762;2023-07-20T03:12:35;15.20;99.90
22161;DHT22;49035;48.812;11.762;2023-07-20T03:15:02;15.10;99.90
22161;DHT22;49035;48.812;11.762;2023-07-20T03:17:28;15.10;99.90
22161;DHT22;49035;48.812;11.762;2023-07-20T03:19:53;14.90;99.90
22161;DHT22;49035;48.812;11.762;2023-07-20T03:22:19;14.80;99.90
22161;DHT22;49035;48.812;11.762;2023-07-20T03:24:44;14.80;99.90
22161;DHT22;49035;48.812;11.762;2023-07-20T03:27:10;14.70;99.90
22161;DHT22;49035;48.812;11.762;2023-07-20T03:29:36;14.80;99.90
22161;DHT22;49035;48.812;11.762;2023-07-20T03:32:01;14.80;99.90
22161;DHT22;49035;48.812;11.762;2023-07-20T03:34:27;14.80;99.90
22161;DHT22;49035;48.812;11.762;2023-07-20T03:36:52;14.80;99.90
22161;DHT22;49035;48.812;11.762;2023-07-20T03:39:18;14.80;99.90
22161;DHT22;49035;48.812;11.762;2023-07-20T03:41:44;14.90;99.90
22161;DHT22;49035;48.812;11.762;2023-07-20T03:44:09;15.10;99.90
22161;DHT22;49035;48.812;11.762;2023-07-20T03:46:35;15.10;99.90
22161;DHT22;49035;48.812;11.762;2023-07-20T03:49:00;15.20;99.90
22161;DHT22;49035;48.812;11.762;2023-07-20T03:51:26;15.30;99.90
22161;DHT22;49035;48.812;11.762;2023-07-20T03:53:52;15.40;99.90
22161;DHT22;49035;48.812;11.762;2023-07-20T03:56:17;15.50;99.90
22161;DHT22;49035;48.812;11.762;2023-07-20T03:58:43;15.50;99.90
22161;DHT22;49035;48.812;11.762;2023-07-20T04:01:09;15.60;99.90
22161;DHT22;49035;48.812;11.762;2023-07-20T04:03:35;15.60;99.90
22161;DHT22;49035;48.812;11.762;2023-07-20T04:06:01;15.70;99.90
22161;DHT22;49035;48.812;11.762;2023-07-20T04:08:27;15.70;99.90
22161;DHT22;49035;48.812;11.762;2023-07-20T04:10:53;15.80;99.90
22161;DHT22;49035;48.812;11.762;2023-07-20T04:13:18;15.90;99.90
22161;DHT22;49035;48.812;11.762;2023-07-20T04:15:44;16.00;99.90
22161;DHT22;49035;48.812;11.762;2023-07-20T04:18:10;16.20;99.90
22161;DHT22;49035;48.812;11.762;2023-07-20T04:20:35;16.30;99.90
22161;DHT22;49035;48.812;11.762;2023-07-20T04:23:01;16.40;99.90
22161;DHT22;49035;48.812;11.762;2023-07-20T04:25:27;16.50;99.90
22161;DHT22;49035;48.812;11.762;2023-07-20T04:27:52;16.60;99.90
22161;DHT22;49035;48.812;11.762;2023-07-20T04:30:19;16.70;99.90
22161;DHT22;49035;48.812;11.762;2023-07-20T04:32:46;16.70;99.90
22161;DHT22;49035;48.812;11.762;2023-07-20T04:35:21;16.80;99.90
22161;DHT22;49035;48.812;11.762;2023-07-20T04:38:03;16.90;99.90
22161;DHT22;49035;48.812;11.762;2023-07-20T04:40:28;17.00;99.90
22161;DHT22;49035;48.812;11.762;2023-07-20T04:42:54;17.10;99.90
22161;DHT22;49035;48.812;11.762;2023-07-20T04:45:19;17.20;99.90
22161;DHT22;49035;48.812;11.762;2023-07-20T04:47:45;17.30;99.90
22161;DHT22;49035;48.812;11.762;2023-07-20T04:50:10;17.30;99.90
22161;DHT22;49035;48.812;11.762;2023-07-20T04:52:36;17.40;99.90
22161;DHT22;49035;48.812;11.762;2023-07-20T04:55:01;17.40;99.90
22161;DHT22;49035;48.812;11.762;2023-07-20T04:57:30;17.50;99.90
22161;DHT22;49035;48.812;11.762;2023-07-20T04:59:55;17.50;99.90
22161;DHT22;49035;48.812;11.762;2023-07-20T05:02:21;17.60;99.90
22161;DHT22;49035;48.812;11.762;2023-07-20T05:04:46;17.70;99.90
22161;DHT22;49035;48.812;11.762;2023-07-20T05:07:12;17.80;99.90
22161;DHT22;49035;48.812;11.762;2023-07-20T05:09:37;17.90;99.90
22161;DHT22;49035;48.812;11.762;2023-07-20T05:12:03;18.00;99.90
22161;DHT22;49035;48.812;11.762;2023-07-20T05:14:29;18.30;99.90
22161;DHT22;49035;48.812;11.762;2023-07-20T05:16:54;18.40;99.90
22161;DHT22;49035;48.812;11.762;2023-07-20T05:19:20;18.60;99.90
22161;DHT22;49035;48.812;11.762;2023-07-20T05:21:46;18.70;99.90
22161;DHT22;49035;48.812;11.762;2023-07-20T05:24:11;18.70;99.90
22161;DHT22;49035;48.812;11.762;2023-07-20T05:26:37;18.80;99.90
22161;DHT22;49035;48.812;11.762;2023-07-20T05:29:03;18.90;99.90
22161;DHT22;49035;48.812;11.762;2023-07-20T05:31:28;19.00;99.90
22161;DHT22;49035;48.812;11.762;2023-07-20T05:33:55;19.10;99.90
22161;DHT22;49035;48.812;11.762;2023-07-20T05:36:21;19.40;99.90
22161;DHT22;49035;48.812;11.762;2023-07-20T05:38:47;19.60;99.90
22161;DHT22;49035;48.812;11.762;2023-07-20T05:41:13;19.70;99.90
22161;DHT22;49035;48.812;11.762;2023-07-20T05:43:39;19.70;99.90
22161;DHT22;49035;48.812;11.762;2023-07-20T05:46:04;19.70;99.90
22161;DHT22;49035;48.812;11.762;2023-07-20T05:48:30;19.60;99.90
22161;DHT22;49035;48.812;11.762;2023-07-20T05:50:56;19.70;99.90
22161;DHT22;49035;48.812;11.762;2023-07-20T05:53:21;19.80;99.90
22161;DHT22;49035;48.812;11.762;2023-07-20T05:55:52;20.00;99.90
22161;DHT22;49035;48.812;11.762;2023-07-20T05:58:18;19.90;99.90
22161;DHT22;49035;48.812;11.762;2023-07-20T06:00:45;19.80;99.30
22161;DHT22;49035;48.812;11.762;2023-07-20T06:03:12;20.00;98.50
22161;DHT22;49035;48.812;11.762;2023-07-20T06:05:38;20.30;98.30
22161;DHT22;49035;48.812;11.762;2023-07-20T06:08:03;20.80;97.10
22161;DHT22;49035;48.812;11.762;2023-07-20T06:10:29;22.00;94.60
22161;DHT22;49035;48.812;11.762;2023-07-20T06:12:55;23.10;93.00
22161;DHT22;49035;48.812;11.762;2023-07-20T06:15:31;22.90;89.10
22161;DHT22;49035;48.812;11.762;2023-07-20T06:17:57;23.00;90.00
22161;DHT22;49035;48.812;11.762;2023-07-20T06:20:23;23.20;86.90
22161;DHT22;49035;48.812;11.762;2023-07-20T06:22:49;23.10;86.60
22161;DHT22;49035;48.812;11.762;2023-07-20T06:25:15;22.20;88.00
22161;DHT22;49035;48.812;11.762;2023-07-20T06:27:41;22.00;89.10
22161;DHT22;49035;48.812;11.762;2023-07-20T06:30:07;21.70;91.30
22161;DHT22;49035;48.812;11.762;2023-07-20T06:32:33;21.70;90.90
22161;DHT22;49035;48.812;11.762;2023-07-20T06:34:58;21.60;91.10
22161;DHT22;49035;48.812;11.762;2023-07-20T06:37:24;22.50;90.60
22161;DHT22;49035;48.812;11.762;2023-07-20T06:39:50;22.70;88.50
22161;DHT22;49035;48.812;11.762;2023-07-20T06:42:15;22.30;90.60
22161;DHT22;49035;48.812;11.762;2023-07-20T06:44:41;22.10;89.50
22161;DHT22;49035;48.812;11.762;2023-07-20T06:47:06;22.10;91.60
22161;DHT22;49035;48.812;11.762;2023-07-20T06:49:33;22.30;90.30
22161;DHT22;49035;48.812;11.762;2023-07-20T06:51:58;22.50;89.90
22161;DHT22;49035;48.812;11.762;2023-07-20T06:54:24;22.90;89.00
22161;DHT22;49035;48.812;11.762;2023-07-20T06:56:50;22.80;89.70
22161;DHT22;49035;48.812;11.762;2023-07-20T06:59:15;23.60;85.50
22161;DHT22;49035;48.812;11.762;2023-07-20T07:01:41;23.70;81.70
22161;DHT22;49035;48.812;11.762;2023-07-20T07:04:06;24.10;81.20
22161;DHT22;49035;48.812;11.762;2023-07-20T07:06:32;24.60;81.40
22161;DHT22;49035;48.812;11.762;2023-07-20T07:08:58;24.40;83.20
22161;DHT22;49035;48.812;11.762;2023-07-20T07:11:23;24.80;79.50
22161;DHT22;49035;48.812;11.762;2023-07-20T07:13:49;25.40;82.70
22161;DHT22;49035;48.812;11.762;2023-07-20T07:16:17;25.20;78.20
22161;DHT22;49035;48.812;11.762;2023-07-20T07:18:49;25.20;80.50
22161;DHT22;49035;48.812;11.762;2023-07-20T07:21:15;25.90;77.90
22161;DHT22;49035;48.812;11.762;2023-07-20T07:23:41;26.30;74.30
22161;DHT22;49035;48.812;11.762;2023-07-20T07:26:07;26.20;73.70
22161;DHT22;49035;48.812;11.762;2023-07-20T07:28:32;26.20;73.90
22161;DHT22;49035;48.812;11.762;2023-07-20T07:30:58;26.50;74.20
22161;DHT22;49035;48.812;11.762;2023-07-20T07:33:23;26.40;71.50
22161;DHT22;49035;48.812;11.762;2023-07-20T07:35:50;26.60;72.10
22161;DHT22;49035;48.812;11.762;2023-07-20T07:38:18;26.70;70.40
22161;DHT22;49035;48.812;11.762;2023-07-20T07:40:43;26.50;70.30
22161;DHT22;49035;48.812;11.762;2023-07-20T07:43:09;26.00;69.20
22161;DHT22;49035;48.812;11.762;2023-07-20T07:45:35;25.20;73.10
22161;DHT22;49035;48.812;11.762;2023-07-20T07:48:05;24.80;74.40
22161;DHT22;49035;48.812;11.762;2023-07-20T07:50:31;24.70;74.40
22161;DHT22;49035;48.812;11.762;2023-07-20T07:52:56;24.70;77.30
22161;DHT22;49035;48.812;11.762;2023-07-20T07:55:22;24.30;76.50
22161;DHT22;49035;48.812;11.762;2023-07-20T07:57:48;23.60;78.70
22161;DHT22;49035;48.812;11.762;2023-07-20T08:00:14;23.50;80.50
22161;DHT22;49035;48.812;11.762;2023-07-20T08:02:41;23.20;81.10
22161;DHT22;49035;48.812;11.762;2023-07-20T08:05:07;23.10;79.80
22161;DHT22;49035;48.812;11.762;2023-07-20T08:07:33;23.00;84.00
22161;DHT22;49035;48.812;11.762;2023-07-20T08:09:58;23.10;82.50
22161;DHT22;49035;48.812;11.762;2023-07-20T08:12:26;23.20;81.50
22161;DHT22;49035;48.812;11.762;2023-07-20T08:14:52;23.10;81.90
22161;DHT22;49035;48.812;11.762;2023-07-20T08:17:17;23.00;82.70
22161;DHT22;49035;48.812;11.762;2023-07-20T08:19:45;23.10;81.20
22161;DHT22;49035;48.812;11.762;2023-07-20T08:22:10;22.70;80.70
22161;DHT22;49035;48.812;11.762;2023-07-20T08:24:40;22.70;84.00
22161;DHT22;49035;48.812;11.762;2023-07-20T08:27:06;22.60;81.50
22161;DHT22;49035;48.812;11.762;2023-07-20T08:29:31;22.70;82.70
22161;DHT22;49035;48.812;11.762;2023-07-20T08:31:57;23.20;80.70
22161;DHT22;49035;48.812;11.762;2023-07-20T08:34:22;23.50;82.10
22161;DHT22;49035;48.812;11.762;2023-07-20T08:36:48;23.80;80.10
22161;DHT22;49035;48.812;11.762;2023-07-20T08:39:14;24.40;84.50
22161;DHT22;49035;48.812;11.762;2023-07-20T08:41:42;25.20;81.70
22161;DHT22;49035;48.812;11.762;2023-07-20T08:44:09;26.30;74.90
22161;DHT22;49035;48.812;11.762;2023-07-20T08:46:38;25.90;69.40
22161;DHT22;49035;48.812;11.762;2023-07-20T08:49:04;26.00;73.00
22161;DHT22;49035;48.812;11.762;2023-07-20T08:51:30;26.80;70.70
22161;DHT22;49035;48.812;11.762;2023-07-20T08:53:58;26.40;67.40
22161;DHT22;49035;48.812;11.762;2023-07-20T08:56:25;26.20;68.80
22161;DHT22;49035;48.812;11.762;2023-07-20T08:58:53;26.60;68.90
22161;DHT22;49035;48.812;11.762;2023-07-20T09:01:19;27.00;66.20
22161;DHT22;49035;48.812;11.762;2023-07-20T09:03:46;27.30;65.90
22161;DHT22;49035;48.812;11.762;2023-07-20T09:06:14;27.30;66.00
22161;DHT22;49035;48.812;11.762;2023-07-20T09:08:41;27.40;63.70
22161;DHT22;49035;48.812;11.762;2023-07-20T09:11:07;27.30;65.20
22161;DHT22;49035;48.812;11.762;2023-07-20T09:13:33;27.30;62.90
22161;DHT22;49035;48.812;11.762;2023-07-20T09:15:59;26.00;62.10
22161;DHT22;49035;48.812;11.762;2023-07-20T09:18:29;24.80;63.80
22161;DHT22;49035;48.812;11.762;2023-07-20T09:21:03;23.70;67.60
22161;DHT22;49035;48.812;11.762;2023-07-20T09:23:35;23.70;68.20
22161;DHT22;49035;48.812;11.762;2023-07-20T09:26:13;24.30;69.10
22161;DHT22;49035;48.812;11.762;2023-07-20T09:28:43;24.40;66.90
22161;DHT22;49035;48.812;11.762;2023-07-20T09:31:19;24.10;68.40
22161;DHT22;49035;48.812;11.762;2023-07-20T09:33:45;24.30;68.30
22161;DHT22;49035;48.812;11.762;2023-07-20T09:36:12;24.80;68.90
22161;DHT22;49035;48.812;11.762;2023-07-20T09:38:39;24.80;69.70
22161;DHT22;49035;48.812;11.762;2023-07-20T09:41:05;25.00;63.20
22161;DHT22;49035;48.812;11.762;2023-07-20T09:43:34;25.10;63.50
22161;DHT22;49035;48.812;11.762;2023-07-20T09:46:00;25.00;66.40
22161;DHT22;49035;48.812;11.762;2023-07-20T09:48:26;25.10;64.80
22161;DHT22;49035;48.812;11.762;2023-07-20T09:50:53;25.30;66.70
22161;DHT22;49035;48.812;11.762;2023-07-20T09:53:19;24.80;65.30
22161;DHT22;49035;48.812;11.762;2023-07-20T09:55:46;24.50;67.10
22161;DHT22;49035;48.812;11.762;2023-07-20T09:58:13;24.70;67.20
22161;DHT22;49035;48.812;11.762;2023-07-20T10:00:40;25.30;63.40
22161;DHT22;49035;48.812;11.762;2023-07-20T10:03:10;26.00;61.60
22161;DHT22;49035;48.812;11.762;2023-07-20T10:05:40;26.20;66.00
22161;DHT22;49035;48.812;11.762;2023-07-20T10:08:11;27.20;65.70
22161;DHT22;49035;48.812;11.762;2023-07-20T10:10:40;28.30;60.30
22161;DHT22;49035;48.812;11.762;2023-07-20T10:13:12;28.70;56.80
22161;DHT22;49035;48.812;11.762;2023-07-20T10:15:53;28.30;56.30
22161;DHT22;49035;48.812;11.762;2023-07-20T10:18:30;28.00;53.70
22161;DHT22;49035;48.812;11.762;2023-07-20T10:20:57;26.40;58.80
22161;DHT22;49035;48.812;11.762;2023-07-20T10:23:24;26.40;56.60
22161;DHT22;49035;48.812;11.762;2023-07-20T10:25:52;26.90;58.70
22161;DHT22;49035;48.812;11.762;2023-07-20T10:28:18;27.70;58.30
22161;DHT22;49035;48.812;11.762;2023-07-20T10:30:44;28.30;57.40
22161;DHT22;49035;48.812;11.762;2023-07-20T10:33:11;28.00;54.80
22161;DHT22;49035;48.812;11.762;2023-07-20T10:35:56;28.00;53.30
22161;DHT22;49035;48.812;11.762;2023-07-20T10:38:39;27.50;57.80
22161;DHT22;49035;48.812;11.762;2023-07-20T10:41:17;27.40;55.90
22161;DHT22;49035;48.812;11.762;2023-07-20T10:43:44;26.30;55.60
22161;DHT22;49035;48.812;11.762;2023-07-20T10:46:11;25.70;56.80
22161;DHT22;49035;48.812;11.762;2023-07-20T10:49:18;26.00;58.80
22161;DHT22;49035;48.812;11.762;2023-07-20T10:51:48;26.80;55.10
22161;DHT22;49035;48.812;11.762;2023-07-20T10:56:44;27.90;53.50
22161;DHT22;49035;48.812;11.762;2023-07-20T11:01:55;28.60;53.10
22161;DHT22;49035;48.812;11.762;2023-07-20T11:04:41;28.90;53.30
22161;DHT22;49035;48.812;11.762;2023-07-20T11:07:07;29.00;49.80
22161;DHT22;49035;48.812;11.762;2023-07-20T11:09:37;27.70;51.30
22161;DHT22;49035;48.812;11.762;2023-07-20T11:12:15;27.10;52.80
22161;DHT22;49035;48.812;11.762;2023-07-20T11:14:54;26.50;52.70
22161;DHT22;49035;48.812;11.762;2023-07-20T11:17:32;25.80;52.80
22161;DHT22;49035;48.812;11.762;2023-07-20T11:19:59;24.90;56.10
22161;DHT22;49035;48.812;11.762;2023-07-20T11:22:31;25.20;57.40
22161;DHT22;49035;48.812;11.762;2023-07-20T11:24:57;25.90;57.00
22161;DHT22;49035;48.812;11.762;2023-07-20T11:27:23;26.20;49.90
22161;DHT22;49035;48.812;11.762;2023-07-20T11:29:49;26.30;53.20
22161;DHT22;49035;48.812;11.762;2023-07-20T11:32:22;27.30;51.90
22161;DHT22;49035;48.812;11.762;2023-07-20T11:34:48;28.30;51.40
22161;DHT22;49035;48.812;11.762;2023-07-20T11:37:14;29.30;50.40
22161;DHT22;49035;48.812;11.762;2023-07-20T11:39:40;30.00;48.60
22161;DHT22;49035;48.812;11.762;2023-07-20T11:42:06;30.30;45.70
22161;DHT22;49035;48.812;11.762;2023-07-20T11:44:32;29.10;44.00
22161;DHT22;49035;48.812;11.762;2023-07-20T11:47:09;26.80;47.90
22161;DHT22;49035;48.812;11.762;2023-07-20T11:49:42;25.30;50.90
22161;DHT22;49035;48.812;11.762;2023-07-20T11:52:10;24.70;54.10
22161;DHT22;49035;48.812;11.762;2023-07-20T11:54:38;25.10;53.30
22161;DHT22;49035;48.812;11.762;2023-07-20T11:57:05;25.90;55.30
22161;DHT22;49035;48.812;11.762;2023-07-20T11:59:31;26.60;49.20
22161;DHT22;49035;48.812;11.762;2023-07-20T12:01:58;27.40;51.80
22161;DHT22;49035;48.812;11.762;2023-07-20T12:04:24;27.40;50.70
22161;DHT22;49035;48.812;11.762;2023-07-20T12:06:49;26.80;51.40
22161;DHT22;49035;48.812;11.762;2023-07-20T12:09:17;25.70;50.10
22161;DHT22;49035;48.812;11.762;2023-07-20T12:11:44;25.30;55.80
22161;DHT22;49035;48.812;11.762;2023-07-20T12:14:12;26.10;53.10
22161;DHT22;49035;48.812;11.762;2023-07-20T12:16:38;26.80;50.00
22161;DHT22;49035;48.812;11.762;2023-07-20T12:19:11;27.60;50.80
22161;DHT22;49035;48.812;11.762;2023-07-20T12:21:38;28.40;49.80
22161;DHT22;49035;48.812;11.762;2023-07-20T12:24:06;29.10;43.70
22161;DHT22;49035;48.812;11.762;2023-07-20T12:26:33;28.30;49.20
22161;DHT22;49035;48.812;11.762;2023-07-20T12:28:59;28.10;47.20
22161;DHT22;49035;48.812;11.762;2023-07-20T12:31:26;27.90;50.20
22161;DHT22;49035;48.812;11.762;2023-07-20T12:33:53;28.00;46.70
22161;DHT22;49035;48.812;11.762;2023-07-20T12:36:20;27.80;52.90
22161;DHT22;49035;48.812;11.762;2023-07-20T12:38:46;28.80;50.90
22161;DHT22;49035;48.812;11.762;2023-07-20T12:41:13;29.80;47.80
22161;DHT22;49035;48.812;11.762;2023-07-20T12:43:42;29.90;48.00
22161;DHT22;49035;48.812;11.762;2023-07-20T12:46:09;30.50;45.20
22161;DHT22;49035;48.812;11.762;2023-07-20T12:48:36;30.70;46.90
22161;DHT22;49035;48.812;11.762;2023-07-20T12:51:06;31.20;44.30
22161;DHT22;49035;48.812;11.762;2023-07-20T12:53:32;30.50;40.40
22161;DHT22;49035;48.812;11.762;2023-07-20T12:55:59;29.70;45.60
22161;DHT22;49035;48.812;11.762;2023-07-20T12:58:24;30.20;46.30
22161;DHT22;49035;48.812;11.762;2023-07-20T13:00:50;30.60;44.90
22161;DHT22;49035;48.812;11.762;2023-07-20T13:03:16;30.90;43.90
22161;DHT22;49035;48.812;11.762;2023-07-20T13:05:44;31.00;42.60
22161;DHT22;49035;48.812;11.762;2023-07-20T13:08:09;30.60;44.60
22161;DHT22;49035;48.812;11.762;2023-07-20T13:10:35;30.00;43.10
22161;DHT22;49035;48.812;11.762;2023-07-20T13:13:01;28.90;43.60
22161;DHT22;49035;48.812;11.762;2023-07-20T13:15:31;27.70;46.20
22161;DHT22;49035;48.812;11.762;2023-07-20T13:17:57;27.20;50.40
22161;DHT22;49035;48.812;11.762;2023-07-20T13:20:24;27.30;51.90
22161;DHT22;49035;48.812;11.762;2023-07-20T13:22:49;28.20;48.80
22161;DHT22;49035;48.812;11.762;2023-07-20T13:25:15;28.50;47.30
22161;DHT22;49035;48.812;11.762;2023-07-20T13:27:40;29.20;47.80
22161;DHT22;49035;48.812;11.762;2023-07-20T13:30:06;30.10;43.80
22161;DHT22;49035;48.812;11.762;2023-07-20T13:32:35;30.10;45.20
22161;DHT22;49035;48.812;11.762;2023-07-20T13:35:01;29.50;47.20
22161;DHT22;49035;48.812;11.762;2023-07-20T13:37:26;29.70;45.60
22161;DHT22;49035;48.812;11.762;2023-07-20T13:39:52;30.30;45.80
22161;DHT22;49035;48.812;11.762;2023-07-20T13:42:18;30.00;43.80
22161;DHT22;49035;48.812;11.762;2023-07-20T13:44:43;29.90;45.30
22161;DHT22;49035;48.812;11.762;2023-07-20T13:47:09;29.70;45.30
22161;DHT22;49035;48.812;11.762;2023-07-20T13:49:34;29.70;44.70
22161;DHT22;49035;48.812;11.762;2023-07-20T13:52:03;29.30;43.90
22161;DHT22;49035;48.812;11.762;2023-07-20T13:54:28;28.50;44.30
22161;DHT22;49035;48.812;11.762;2023-07-20T13:56:54;28.60;48.00
22161;DHT22;49035;48.812;11.762;2023-07-20T13:59:19;28.40;44.20
22161;DHT22;49035;48.812;11.762;2023-07-20T14:01:45;28.70;44.30
22161;DHT22;49035;48.812;11.762;2023-07-20T14:04:11;29.10;44.60
22161;DHT22;49035;48.812;11.762;2023-07-20T14:06:37;29.50;42.70
22161;DHT22;49035;48.812;11.762;2023-07-20T14:09:03;29.20;42.20
22161;DHT22;49035;48.812;11.762;2023-07-20T14:11:29;29.20;43.30
22161;DHT22;49035;48.812;11.762;2023-07-20T14:13:55;29.60;44.80
22161;DHT22;49035;48.812;11.762;2023-07-20T14:16:21;29.80;40.90
22161;DHT22;49035;48.812;11.762;2023-07-20T14:18:47;29.60;42.20
22161;DHT22;49035;48.812;11.762;2023-07-20T14:21:14;30.00;45.20
22161;DHT22;49035;48.812;11.762;2023-07-20T14:23:40;30.60;43.60
22161;DHT22;49035;48.812;11.762;2023-07-20T14:26:05;30.60;39.60
22161;DHT22;49035;48.812;11.762;2023-07-20T14:28:31;30.60;44.10
22161;DHT22;49035;48.812;11.762;2023-07-20T14:30:57;30.90;40.10
22161;DHT22;49035;48.812;11.762;2023-07-20T14:33:23;30.60;45.00
22161;DHT22;49035;48.812;11.762;2023-07-20T14:35:48;30.60;43.70
22161;DHT22;49035;48.812;11.762;2023-07-20T14:38:14;31.20;43.30
22161;DHT22;49035;48.812;11.762;2023-07-20T14:40:39;31.60;42.40
22161;DHT22;49035;48.812;11.762;2023-07-20T14:43:05;31.70;41.50
22161;DHT22;49035;48.812;11.762;2023-07-20T14:45:31;32.10;43.30
22161;DHT22;49035;48.812;11.762;2023-07-20T14:47:56;32.40;41.40
22161;DHT22;49035;48.812;11.762;2023-07-20T14:50:22;32.20;41.50
22161;DHT22;49035;48.812;11.762;2023-07-20T14:52:48;31.40;42.20
22161;DHT22;49035;48.812;11.762;2023-07-20T14:55:13;30.40;41.60
22161;DHT22;49035;48.812;11.762;2023-07-20T14:57:39;28.90;42.90
22161;DHT22;49035;48.812;11.762;2023-07-20T15:00:05;28.10;45.90
22161;DHT22;49035;48.812;11.762;2023-07-20T15:02:38;27.40;45.00
22161;DHT22;49035;48.812;11.762;2023-07-20T15:05:08;26.70;45.90
22161;DHT22;49035;48.812;11.762;2023-07-20T15:07:34;26.40;47.10
22161;DHT22;49035;48.812;11.762;2023-07-20T15:10:00;27.00;47.50
22161;DHT22;49035;48.812;11.762;2023-07-20T15:12:26;28.60;47.70
22161;DHT22;49035;48.812;11.762;2023-07-20T15:15:12;29.80;45.30
22161;DHT22;49035;48.812;11.762;2023-07-20T15:17:39;30.30;42.90
22161;DHT22;49035;48.812;11.762;2023-07-20T15:20:06;30.90;42.30
22161;DHT22;49035;48.812;11.762;2023-07-20T15:22:32;31.00;43.00
22161;DHT22;49035;48.812;11.762;2023-07-20T15:24:58;31.80;40.10